Time;durP1;ratioP1;P1;durP2;ratioP2;P2;SDS_P1;SDS_P2;PMS_P1;PMS_P2;Temp;Humidity;BMP_temperature;BMP_pressure;BME280_temperature;BME280_humidity;BME280_pressure;Samples;Min_cycle;Max_cycle;Signal;HPM_P1;HPM_P2
2023/05/24 00:04:02;;;;;;;9.20;5.97;;;;;;;;;;13001771;19;20037;-66
2023/05/24 00:08:21;;;;;;;15.27;6.55;;;;;;;;;;13002860;19;20385;-64
2023/05/24 00:12:40;;;;;;;9.40;6.57;;;;;;;;;;13002245;19;20034;-64
2023/05/24 00:16:57;;;;;;;10.77;6.53;;;;;;;;;;13002738;19;20011;-64
2023/05/24 00:21:16;;;;;;;8.43;5.97;;;;;;;;;;13001243;19;20014;-64
2023/05/24 00:25:34;;;;;;;11.00;7.07;;;;;;;;;;13002001;19;20013;-65
2023/05/24 00:29:52;;;;;;;11.70;6.65;;;;;;;;;;13002659;19;20099;-65
2023/05/24 00:34:09;;;;;;;8.23;5.60;;;;;;;;;;13000426;19;20465;-65
2023/05/24 00:38:27;;;;;;;10.40;6.25;;;;;;;;;;13000411;19;20021;-65
2023/05/24 00:42:45;;;;;;;8.25;5.78;;;;;;;;;;13000983;19;20025;-65
2023/05/24 00:47:04;;;;;;;8.25;5.90;;;;;;;;;;12999979;19;20018;-64
2023/05/24 00:51:26;;;;;;;8.38;6.18;;;;;;;;;;12999016;19;20349;-65
2023/05/24 00:55:44;;;;;;;8.45;6.20;;;;;;;;;;13000339;19;20111;-64
2023/05/24 01:00:05;;;;;;;10.75;6.68;;;;;;;;;;12997091;19;20053;-66
2023/05/24 01:04:22;;;;;;;10.02;6.25;;;;;;;;;;13004529;19;20017;-65
2023/05/24 01:08:55;;;;;;;;;;;;;;;;;;13000346;19;20021;-64
2023/05/24 01:13:37;;;;;;;13.82;6.45;;;;;;;;;;13011142;19;19930;-64
2023/05/24 01:18:06;;;;;;;8.43;6.10;;;;;;;;;;13011040;19;20014;-64
2023/05/24 01:22:48;;;;;;;7.80;6.13;;;;;;;;;;13008552;19;20007;-65
2023/05/24 01:27:11;;;;;;;10.32;6.72;;;;;;;;;;13010089;19;20006;-64
2023/05/24 01:31:28;;;;;;;10.15;6.10;;;;;;;;;;13008977;19;20352;-64
2023/05/24 01:35:47;;;;;;;9.63;6.30;;;;;;;;;;13008983;19;20030;-65
2023/05/24 01:40:06;;;;;;;9.95;6.97;;;;;;;;;;13008558;19;20038;-66
2023/05/24 01:44:39;;;;;;;9.63;6.72;;;;;;;;;;13008018;19;20021;-67
2023/05/24 01:49:21;;;;;;;11.98;7.07;;;;;;;;;;13009652;19;20010;-65
2023/05/24 01:53:45;;;;;;;12.38;8.18;;;;;;;;;;13009505;19;20007;-66
2023/05/24 01:58:05;;;;;;;10.38;7.28;;;;;;;;;;13007526;19;20362;-67
2023/05/24 02:02:23;;;;;;;9.90;7.05;;;;;;;;;;13007003;19;20030;-65
2023/05/24 02:06:41;;;;;;;10.60;7.50;;;;;;;;;;13009013;19;20370;-66
2023/05/24 02:10:59;;;;;;;10.88;6.97;;;;;;;;;;13008247;19;20010;-66
2023/05/24 02:15:16;;;;;;;9.52;6.22;;;;;;;;;;13007850;19;20315;-66
2023/05/24 02:19:35;;;;;;;9.70;7.22;;;;;;;;;;13007085;19;19999;-66
2023/05/24 02:23:53;;;;;;;11.65;7.43;;;;;;;;;;13005473;19;20019;-66
2023/05/24 02:28:11;;;;;;;;;;;;;;;;;;13007312;19;20364;-67
2023/05/24 02:32:30;;;;;;;;;;;;;;;;;;13008251;19;20255;-68
2023/05/24 02:36:49;;;;;;;9.85;6.43;;;;;;;;;;13007453;19;19938;-63
2023/05/24 02:41:07;;;;;;;10.55;7.35;;;;;;;;;;13004912;19;20002;-66
2023/05/24 02:45:25;;;;;;;10.30;7.13;;;;;;;;;;13006702;19;20018;-66
2023/05/24 02:49:44;;;;;;;10.82;7.20;;;;;;;;;;13006348;19;19998;-67
2023/05/24 02:54:03;;;;;;;11.82;8.25;;;;;;;;;;13005361;19;20003;-66
2023/05/24 02:58:22;;;;;;;9.55;7.47;;;;;;;;;;13006132;19;20034;-65
2023/05/24 03:02:39;;;;;;;11.60;7.70;;;;;;;;;;13005056;19;20017;-66
2023/05/24 03:06:57;;;;;;;12.75;8.70;;;;;;;;;;13005979;19;20010;-67
2023/05/24 03:11:15;;;;;;;14.03;9.00;;;;;;;;;;13003919;19;20010;-65
2023/05/24 03:15:33;;;;;;;14.65;10.50;;;;;;;;;;13005944;19;20010;-65
2023/05/24 03:19:51;;;;;;;16.05;9.95;;;;;;;;;;13004684;19;20003;-68
2023/05/24 03:24:11;;;;;;;18.38;11.50;;;;;;;;;;13004295;19;20018;-65
2023/05/24 03:28:30;;;;;;;16.55;10.43;;;;;;;;;;13004540;19;20011;-66
2023/05/24 03:32:47;;;;;;;14.25;9.65;;;;;;;;;;13003801;19;20034;-66
2023/05/24 03:37:07;;;;;;;14.80;9.73;;;;;;;;;;13003530;19;20504;-65
2023/05/24 03:41:25;;;;;;;10.43;6.82;;;;;;;;;;13002561;19;20015;-66
2023/05/24 03:45:43;;;;;;;12.82;7.60;;;;;;;;;;13003681;19;20014;-66
2023/05/24 03:50:02;;;;;;;14.23;9.05;;;;;;;;;;13002614;19;20014;-66
2023/05/24 03:54:19;;;;;;;13.85;9.20;;;;;;;;;;13001121;19;20461;-65
2023/05/24 03:58:41;;;;;;;14.10;8.15;;;;;;;;;;13003432;19;20006;-67
2023/05/24 04:03:00;;;;;;;;;;;;;;;;;;13002785;19;20469;-65
2023/05/24 04:07:23;;;;;;;12.85;8.43;;;;;;;;;;13002480;19;19922;-67
2023/05/24 04:11:40;;;;;;;11.48;7.03;;;;;;;;;;13002448;19;20505;-66
2023/05/24 04:15:59;;;;;;;15.52;8.70;;;;;;;;;;13001659;19;20022;-65
2023/05/24 04:20:18;;;;;;;13.10;8.63;;;;;;;;;;13001632;19;20010;-65
2023/05/24 04:24:36;;;;;;;15.15;10.23;;;;;;;;;;13001754;19;20025;-65
2023/05/24 04:28:55;;;;;;;12.43;8.48;;;;;;;;;;13001082;19;20014;-65
2023/05/24 04:33:13;;;;;;;14.10;8.95;;;;;;;;;;13000444;19;20334;-67
2023/05/24 04:37:32;;;;;;;11.93;8.00;;;;;;;;;;13001104;19;20002;-66
2023/05/24 04:41:50;;;;;;;13.02;8.88;;;;;;;;;;12999305;19;20090;-66
2023/05/24 04:46:09;;;;;;;13.52;8.98;;;;;;;;;;13007279;19;20026;-65
2023/05/24 04:50:27;;;;;;;12.23;7.85;;;;;;;;;;13013342;19;20014;-65
2023/05/24 04:54:45;;;;;;;;;;;;;;;;;;13013704;19;20005;-65
2023/05/24 04:59:07;;;;;;;13.43;8.98;;;;;;;;;;13012012;19;20335;-67
2023/05/24 05:03:25;;;;;;;12.63;8.15;;;;;;;;;;13013021;19;20086;-65
2023/05/24 05:07:44;;;;;;;13.35;8.18;;;;;;;;;;13012730;19;20025;-65
2023/05/24 05:12:03;;;;;;;12.93;8.10;;;;;;;;;;13011001;19;20002;-66
2023/05/24 05:16:21;;;;;;;11.40;7.68;;;;;;;;;;13011611;19;20387;-66
2023/05/24 05:20:39;;;;;;;10.88;6.95;;;;;;;;;;13010149;19;20014;-66
2023/05/24 05:24:58;;;;;;;11.88;7.90;;;;;;;;;;13011310;19;20006;-65
2023/05/24 05:29:15;;;;;;;12.63;7.80;;;;;;;;;;13009400;19;20010;-66
2023/05/24 05:33:33;;;;;;;9.63;7.68;;;;;;;;;;13010821;19;20017;-66
2023/05/24 05:37:51;;;;;;;9.95;7.32;;;;;;;;;;13010701;19;20022;-66
2023/05/24 05:42:10;;;;;;;11.57;7.25;;;;;;;;;;13007479;19;20014;-66
2023/05/24 05:46:28;;;;;;;9.27;6.35;;;;;;;;;;13008199;19;20010;-67
2023/05/24 05:50:47;;;;;;;13.02;8.02;;;;;;;;;;13009942;19;20007;-66
2023/05/24 05:55:05;;;;;;;8.32;6.30;;;;;;;;;;13007477;19;20011;-65
2023/05/24 05:59:23;;;;;;;15.02;7.40;;;;;;;;;;13007562;19;20010;-67
2023/05/24 06:03:41;;;;;;;12.15;7.18;;;;;;;;;;13009404;19;20010;-66
2023/05/24 06:08:00;;;;;;;12.15;6.80;;;;;;;;;;13008691;19;20468;-67
2023/05/24 06:12:18;;;;;;;18.45;6.95;;;;;;;;;;13008306;19;20350;-66
2023/05/24 06:16:40;;;;;;;10.55;7.50;;;;;;;;;;13009014;19;19998;-66
2023/05/24 06:20:58;;;;;;;9.65;7.20;;;;;;;;;;13007149;19;20469;-67
2023/05/24 06:25:19;;;;;;;;;;;;;;;;;;13008867;19;20014;-66
2023/05/24 06:29:37;;;;;;;10.25;6.57;;;;;;;;;;13008459;19;19911;-66
2023/05/24 06:33:55;;;;;;;9.48;6.95;;;;;;;;;;13007434;19;20122;-67
2023/05/24 06:38:18;;;;;;;16.15;7.88;;;;;;;;;;13007703;19;20019;-65
2023/05/24 06:42:38;;;;;;;10.90;7.50;;;;;;;;;;13005485;19;19998;-66
2023/05/24 06:46:56;;;;;;;10.27;7.47;;;;;;;;;;13006700;19;20030;-66
2023/05/24 06:51:16;;;;;;;8.85;5.63;;;;;;;;;;13006754;19;20031;-66
2023/05/24 06:55:35;;;;;;;10.13;6.53;;;;;;;;;;13006876;19;20421;-66
2023/05/24 06:59:54;;;;;;;13.05;7.63;;;;;;;;;;13006127;19;20003;-66
2023/05/24 07:04:13;;;;;;;11.40;6.40;;;;;;;;;;13005597;19;20457;-66
2023/05/24 07:08:31;;;;;;;10.48;5.53;;;;;;;;;;13004706;19;20014;-66
2023/05/24 07:12:48;;;;;;;9.70;4.82;;;;;;;;;;13005475;19;20018;-65
2023/05/24 07:17:07;;;;;;;8.68;4.78;;;;;;;;;;13004785;19;20010;-66
2023/05/24 07:21:26;;;;;;;7.05;4.38;;;;;;;;;;13004521;19;20014;-66
2023/05/24 07:25:43;;;;;;;5.45;3.50;;;;;;;;;;13005202;19;20014;-66
2023/05/24 07:30:04;;;;;;;8.65;4.40;;;;;;;;;;13003633;19;20322;-65
2023/05/24 07:34:33;;;;;;;8.35;3.42;;;;;;;;;;13004761;19;20006;-65
2023/05/24 07:38:51;;;;;;;6.72;4.05;;;;;;;;;;13004045;19;20022;-66
2023/05/24 07:43:09;;;;;;;6.70;3.30;;;;;;;;;;13001193;19;20029;-65
2023/05/24 07:47:27;;;;;;;7.82;3.72;;;;;;;;;;13004013;19;20007;-65
2023/05/24 07:51:49;;;;;;;7.80;3.92;;;;;;;;;;13003393;19;20462;-66
2023/05/24 07:56:07;;;;;;;4.60;3.30;;;;;;;;;;13002822;19;19998;-66
2023/05/24 08:00:25;;;;;;;11.70;3.65;;;;;;;;;;13003094;19;20342;-65
2023/05/24 08:04:43;;;;;;;5.20;3.33;;;;;;;;;;13002995;19;20002;-65
2023/05/24 08:09:03;;;;;;;4.55;2.72;;;;;;;;;;13001691;19;20461;-66
2023/05/24 08:13:21;;;;;;;5.55;3.25;;;;;;;;;;13002083;19;20061;-66
2023/05/24 08:17:40;;;;;;;4.03;2.75;;;;;;;;;;13001651;19;19999;-66
2023/05/24 08:22:03;;;;;;;;;;;;;;;;;;12997781;19;20027;-66
2023/05/24 08:26:23;;;;;;;10.27;4.20;;;;;;;;;;13001534;19;19938;-66
2023/05/24 08:30:40;;;;;;;8.82;4.78;;;;;;;;;;13001360;19;20007;-65
2023/05/24 08:34:58;;;;;;;11.82;4.90;;;;;;;;;;12999857;19;20032;-66
2023/05/24 08:39:35;;;;;;;8.98;4.05;;;;;;;;;;13001481;19;20006;-66
2023/05/24 08:43:55;;;;;;;26.73;5.70;;;;;;;;;;12999474;19;20010;-66
2023/05/24 08:48:14;;;;;;;7.13;4.22;;;;;;;;;;13000735;19;20450;-65
2023/05/24 08:52:32;;;;;;;7.00;4.18;;;;;;;;;;13000349;19;20365;-66
2023/05/24 08:56:50;;;;;;;14.55;4.63;;;;;;;;;;12998476;19;20030;-65
2023/05/24 09:01:11;;;;;;;6.63;3.83;;;;;;;;;;12997179;19;20002;-65
2023/05/24 09:05:30;;;;;;;9.07;3.88;;;;;;;;;;13000058;19;20014;-66
2023/05/24 09:10:00;;;;;;;6.38;4.25;;;;;;;;;;12999890;19;20017;-66
2023/05/24 09:14:19;;;;;;;9.98;4.03;;;;;;;;;;12998611;19;20025;-67
2023/05/24 09:18:41;;;;;;;7.85;3.92;;;;;;;;;;12999745;19;20018;-66
2023/05/24 09:23:02;;;;;;;5.47;3.22;;;;;;;;;;12998336;19;20346;-65
2023/05/24 09:27:20;;;;;;;5.03;3.45;;;;;;;;;;12998394;19;20484;-66
2023/05/24 09:31:38;;;;;;;5.68;3.83;;;;;;;;;;13004910;19;20022;-66
2023/05/24 09:36:03;;;;;;;6.05;3.33;;;;;;;;;;13011275;19;20014;-66
2023/05/24 09:40:21;;;;;;;8.23;4.50;;;;;;;;;;13010271;19;20035;-65
2023/05/24 09:44:40;;;;;;;4.35;2.72;;;;;;;;;;13010435;19;20033;-67
2023/05/24 09:49:02;;;;;;;7.43;4.38;;;;;;;;;;13009879;19;20039;-65
2023/05/24 09:53:21;;;;;;;4.15;2.97;;;;;;;;;;13010514;19;20007;-67
2023/05/24 09:57:40;;;;;;;7.60;3.83;;;;;;;;;;13010238;19;20457;-65
2023/05/24 10:02:10;;;;;;;8.80;4.25;;;;;;;;;;13009085;19;20010;-65
2023/05/24 10:06:33;;;;;;;5.75;3.53;;;;;;;;;;13009312;19;20007;-66
2023/05/24 10:10:52;;;;;;;5.25;3.22;;;;;;;;;;13008012;19;20009;-66
2023/05/24 10:15:11;;;;;;;5.63;3.97;;;;;;;;;;13006582;19;20006;-67
2023/05/24 10:19:28;;;;;;;5.75;3.22;;;;;;;;;;13008535;19;20426;-65
2023/05/24 10:23:51;;;;;;;5.97;3.47;;;;;;;;;;13007207;19;20342;-66
2023/05/24 10:28:12;;;;;;;11.02;4.20;;;;;;;;;;13006188;19;20007;-66
2023/05/24 10:32:34;;;;;;;7.55;4.25;;;;;;;;;;13006898;19;20014;-65
2023/05/24 10:36:52;;;;;;;7.05;4.45;;;;;;;;;;13006076;19;20010;-66
2023/05/24 10:41:11;;;;;;;12.13;4.30;;;;;;;;;;13004597;19;20026;-66
2023/05/24 10:45:32;;;;;;;6.82;3.85;;;;;;;;;;13006239;19;20462;-65
2023/05/24 10:49:56;;;;;;;10.10;4.57;;;;;;;;;;13007144;19;20014;-66
2023/05/24 10:54:17;;;;;;;11.18;4.55;;;;;;;;;;13006470;19;20010;-66
2023/05/24 10:58:59;;;;;;;7.72;3.75;;;;;;;;;;13007330;19;20013;-66
2023/05/24 11:03:23;;;;;;;7.95;3.75;;;;;;;;;;13005373;19;20018;-66
2023/05/24 11:07:44;;;;;;;7.45;4.03;;;;;;;;;;13006539;19;20009;-66
2023/05/24 11:12:07;;;;;;;7.22;4.05;;;;;;;;;;13004780;19;20013;-66
2023/05/24 11:16:35;;;;;;;6.60;3.70;;;;;;;;;;13004882;19;20015;-66
2023/05/24 11:20:57;;;;;;;12.13;3.58;;;;;;;;;;13003855;19;20010;-66
2023/05/24 11:25:17;;;;;;;6.63;3.88;;;;;;;;;;13004121;19;20007;-65
2023/05/24 11:29:51;;;;;;;6.68;3.85;;;;;;;;;;13004388;19;20345;-66
2023/05/24 11:34:10;;;;;;;6.05;3.67;;;;;;;;;;13001790;19;20362;-66
2023/05/24 11:38:28;;;;;;;6.30;3.88;;;;;;;;;;13003902;19;20029;-66
2023/05/24 11:42:46;;;;;;;7.15;3.55;;;;;;;;;;13002439;19;20461;-66
2023/05/24 11:47:07;;;;;;;4.28;2.63;;;;;;;;;;13002687;19;20011;-66
2023/05/24 11:51:33;;;;;;;6.40;3.58;;;;;;;;;;13003794;19;20022;-66
2023/05/24 11:55:53;;;;;;;5.93;3.67;;;;;;;;;;13003374;19;20354;-65
2023/05/24 12:00:23;;;;;;;5.72;3.75;;;;;;;;;;13000723;19;20021;-65
2023/05/24 12:04:41;;;;;;;6.07;3.20;;;;;;;;;;13002868;19;20002;-67
2023/05/24 12:09:00;;;;;;;5.60;3.47;;;;;;;;;;13002594;19;20003;-66
2023/05/24 12:13:24;;;;;;;6.18;3.30;;;;;;;;;;13001503;19;20017;-66
2023/05/24 12:17:42;;;;;;;6.10;3.33;;;;;;;;;;13000918;19;20361;-65
2023/05/24 12:22:05;;;;;;;5.30;3.28;;;;;;;;;;13000122;19;20484;-65
2023/05/24 12:26:25;;;;;;;6.15;3.22;;;;;;;;;;13001636;19;20022;-66
2023/05/24 12:30:43;;;;;;;4.80;3.03;;;;;;;;;;13001709;19;20002;-65
2023/05/24 12:35:03;;;;;;;5.88;3.40;;;;;;;;;;13000816;19;20465;-65
2023/05/24 12:39:30;;;;;;;7.45;4.20;;;;;;;;;;13000475;19;20022;-66
2023/05/24 12:43:51;;;;;;;8.90;4.23;;;;;;;;;;12999528;19;20006;-67
2023/05/24 12:48:09;;;;;;;6.32;3.33;;;;;;;;;;13000580;19;20492;-66
2023/05/24 12:52:28;;;;;;;6.60;3.35;;;;;;;;;;13000918;19;20015;-68
2023/05/24 12:56:46;;;;;;;6.15;3.30;;;;;;;;;;13000588;19;20115;-66
2023/05/24 13:01:05;;;;;;;5.28;3.50;;;;;;;;;;12996177;19;20014;-66
2023/05/24 13:05:26;;;;;;;5.57;3.80;;;;;;;;;;13002170;19;20026;-67
2023/05/24 13:09:44;;;;;;;5.50;3.63;;;;;;;;;;13012984;19;20014;-66
2023/05/24 13:14:03;;;;;;;4.78;3.08;;;;;;;;;;13011805;19;20099;-65
2023/05/24 13:18:22;;;;;;;4.25;2.80;;;;;;;;;;13012044;19;20038;-66
2023/05/24 13:22:41;;;;;;;6.07;3.05;;;;;;;;;;13011647;19;20033;-65
2023/05/24 13:26:58;;;;;;;6.03;3.15;;;;;;;;;;13011627;19;20007;-68
2023/05/24 13:31:17;;;;;;;3.50;2.53;;;;;;;;;;13011342;19;20339;-66
2023/05/24 13:35:34;;;;;;;5.07;3.28;;;;;;;;;;13011763;19;20493;-66
2023/05/24 13:39:54;;;;;;;4.25;2.60;;;;;;;;;;13011025;19;20022;-65
2023/05/24 13:44:14;;;;;;;3.85;2.55;;;;;;;;;;13008782;19;20018;-65
2023/05/24 13:48:32;;;;;;;5.65;3.40;;;;;;;;;;13010178;19;20353;-66
2023/05/24 13:52:50;;;;;;;7.13;2.95;;;;;;;;;;13009907;19;20066;-66
2023/05/24 13:57:07;;;;;;;4.82;3.08;;;;;;;;;;13009136;19;20303;-65
2023/05/24 14:01:26;;;;;;;6.18;3.20;;;;;;;;;;13009802;19;20074;-66
2023/05/24 14:05:46;;;;;;;6.78;3.28;;;;;;;;;;13009682;19;20013;-66
2023/05/24 14:10:05;;;;;;;4.97;3.38;;;;;;;;;;13008602;19;20006;-66
2023/05/24 14:14:23;;;;;;;5.00;3.33;;;;;;;;;;13009088;19;20010;-65
2023/05/24 14:18:44;;;;;;;6.25;3.70;;;;;;;;;;13006465;19;20323;-67
2023/05/24 14:23:03;;;;;;;4.93;3.53;;;;;;;;;;13005994;19;20086;-65
2023/05/24 14:27:21;;;;;;;4.40;3.30;;;;;;;;;;13005798;19;20034;-66
2023/05/24 14:31:42;;;;;;;6.53;3.85;;;;;;;;;;13007326;19;20007;-66
2023/05/24 14:36:00;;;;;;;4.82;3.55;;;;;;;;;;13007658;19;20028;-65
2023/05/24 14:40:18;;;;;;;5.43;3.70;;;;;;;;;;13006719;19;20007;-65
2023/05/24 14:44:36;;;;;;;7.75;3.65;;;;;;;;;;13004152;19;20030;-66
2023/05/24 14:48:53;;;;;;;4.88;2.97;;;;;;;;;;13007144;19;20331;-66
2023/05/24 14:53:11;;;;;;;13.90;3.03;;;;;;;;;;13005422;19;20006;-65
2023/05/24 14:57:29;;;;;;;;;;;;;;;;;;13006848;19;20006;-66
2023/05/24 15:01:48;;;;;;;6.95;3.20;;;;;;;;;;13005016;19;19922;-65
2023/05/24 15:06:07;;;;;;;13.98;4.82;;;;;;;;;;13004916;19;20018;-65
2023/05/24 15:10:25;;;;;;;10.90;5.15;;;;;;;;;;13005062;19;20454;-66
2023/05/24 15:14:43;;;;;;;8.60;3.80;;;;;;;;;;13004855;19;20094;-65
2023/05/24 15:19:01;;;;;;;6.38;3.65;;;;;;;;;;13004187;19;20465;-66
2023/05/24 15:23:19;;;;;;;6.40;4.28;;;;;;;;;;13003446;19;20125;-66
2023/05/24 15:27:38;;;;;;;7.28;4.00;;;;;;;;;;13003242;19;20006;-65
2023/05/24 15:31:57;;;;;;;6.00;3.58;;;;;;;;;;13002563;19;20115;-66
2023/05/24 15:36:16;;;;;;;7.78;3.85;;;;;;;;;;13003609;19;20030;-66
2023/05/24 15:40:34;;;;;;;7.03;4.15;;;;;;;;;;13003705;19;20010;-66
2023/05/24 15:44:52;;;;;;;6.75;3.90;;;;;;;;;;13002191;19;20037;-66
2023/05/24 15:49:10;;;;;;;6.40;3.63;;;;;;;;;;13002274;19;20081;-66
2023/05/24 15:53:28;;;;;;;10.02;3.75;;;;;;;;;;13002902;19;20437;-67
2023/05/24 15:57:46;;;;;;;5.00;3.60;;;;;;;;;;13002799;19;20015;-65
2023/05/24 16:02:07;;;;;;;4.53;3.05;;;;;;;;;;13001250;19;20017;-65
2023/05/24 16:06:25;;;;;;;4.22;3.00;;;;;;;;;;13002181;19;20077;-65
2023/05/24 16:10:44;;;;;;;4.60;3.10;;;;;;;;;;13001090;19;20002;-66
2023/05/24 16:15:02;;;;;;;8.38;3.17;;;;;;;;;;13002211;19;20018;-66
2023/05/24 16:19:21;;;;;;;5.45;2.92;;;;;;;;;;13001368;19;20143;-65
2023/05/24 16:23:39;;;;;;;5.55;3.15;;;;;;;;;;13000645;19;20007;-65
2023/05/24 16:27:59;;;;;;;9.30;5.28;;;;;;;;;;13000967;19;20061;-66
2023/05/24 16:32:17;;;;;;;7.32;4.80;;;;;;;;;;13001013;19;20086;-67
2023/05/24 16:36:35;;;;;;;7.40;4.47;;;;;;;;;;13000840;19;20002;-66
2023/05/24 16:40:53;;;;;;;11.65;5.53;;;;;;;;;;13004612;19;20018;-67
2023/05/24 16:45:11;;;;;;;10.05;5.38;;;;;;;;;;13011341;19;20011;-66
2023/05/24 16:49:30;;;;;;;11.18;4.45;;;;;;;;;;13012576;19;20463;-67
2023/05/24 16:53:48;;;;;;;11.63;5.72;;;;;;;;;;13013062;19;20011;-66
2023/05/24 16:58:06;;;;;;;6.22;3.25;;;;;;;;;;13012007;19;20039;-66
2023/05/24 17:02:25;;;;;;;4.95;3.05;;;;;;;;;;13011592;19;20022;-65
2023/05/24 17:06:45;;;;;;;4.57;2.55;;;;;;;;;;13012078;19;20066;-65
2023/05/24 17:11:05;;;;;;;5.47;3.28;;;;;;;;;;13011164;19;20013;-66
2023/05/24 17:15:23;;;;;;;11.40;6.22;;;;;;;;;;13011782;19;20014;-65
2023/05/24 17:19:41;;;;;;;8.38;4.30;;;;;;;;;;13011590;19;20036;-65
2023/05/24 17:23:59;;;;;;;10.25;5.15;;;;;;;;;;13010339;19;20018;-65
2023/05/24 17:28:18;;;;;;;6.40;2.92;;;;;;;;;;13011223;19;20205;-66
2023/05/24 17:32:36;;;;;;;4.68;2.88;;;;;;;;;;13011042;19;20463;-65
2023/05/24 17:36:55;;;;;;;6.15;3.72;;;;;;;;;;13008740;19;20006;-66
2023/05/24 17:41:13;;;;;;;4.57;2.63;;;;;;;;;;13008840;19;20010;-65
2023/05/24 17:45:31;;;;;;;;;;;;;;;;;;13010136;19;20052;-66
2023/05/24 17:49:50;;;;;;;10.90;4.03;;;;;;;;;;13009471;19;19911;-66
2023/05/24 17:54:08;;;;;;;8.25;3.33;;;;;;;;;;13008035;19;20014;-65
2023/05/24 17:58:29;;;;;;;7.30;3.33;;;;;;;;;;13009160;19;20015;-67
2023/05/24 18:02:48;;;;;;;11.48;4.82;;;;;;;;;;13008432;19;20035;-67
2023/05/24 18:07:09;;;;;;;6.97;3.08;;;;;;;;;;13008694;19;20019;-67
2023/05/24 18:11:28;;;;;;;9.98;3.65;;;;;;;;;;13008529;19;20006;-66
2023/05/24 18:15:48;;;;;;;6.00;3.58;;;;;;;;;;13008891;19;20006;-65
2023/05/24 18:20:07;;;;;;;9.57;3.10;;;;;;;;;;13007551;19;20014;-65
2023/05/24 18:24:25;;;;;;;10.13;3.25;;;;;;;;;;13007641;19;20353;-65
2023/05/24 18:28:43;;;;;;;7.43;3.45;;;;;;;;;;13007490;19;20011;-65
2023/05/24 18:33:02;;;;;;;8.18;3.85;;;;;;;;;;13006618;19;20021;-65
2023/05/24 18:37:25;;;;;;;20.17;7.63;;;;;;;;;;13007274;19;20021;-67
2023/05/24 18:41:44;;;;;;;15.10;6.82;;;;;;;;;;13005715;19;20015;-65
2023/05/24 18:46:03;;;;;;;16.58;7.85;;;;;;;;;;13004420;19;20010;-65
2023/05/24 18:50:21;;;;;;;12.18;6.03;;;;;;;;;;13006441;19;20094;-65
2023/05/24 18:54:41;;;;;;;9.05;4.53;;;;;;;;;;13006281;19;20006;-65
2023/05/24 18:58:59;;;;;;;8.75;3.67;;;;;;;;;;13006215;19;20347;-62
2023/05/24 19:03:17;;;;;;;;;;;;;;;;;;13004957;19;20018;-62
2023/05/24 19:07:38;;;;;;;7.25;3.72;;;;;;;;;;13006213;19;19915;-63
2023/05/24 19:11:58;;;;;;;5.05;2.92;;;;;;;;;;13005669;19;20014;-62
2023/05/24 19:16:17;;;;;;;5.75;3.45;;;;;;;;;;13005035;19;20375;-62
2023/05/24 19:20:35;;;;;;;7.57;3.53;;;;;;;;;;13004465;19;20014;-62
2023/05/24 19:24:54;;;;;;;6.63;3.50;;;;;;;;;;13004320;19;20015;-62
2023/05/24 19:29:12;;;;;;;9.88;3.67;;;;;;;;;;13003824;19;20029;-62
2023/05/24 19:33:31;;;;;;;6.68;3.13;;;;;;;;;;13004044;19;20464;-62
2023/05/24 19:37:51;;;;;;;7.13;3.53;;;;;;;;;;13003783;19;20013;-62
2023/05/24 19:42:10;;;;;;;6.35;3.63;;;;;;;;;;13002586;19;20112;-63
2023/05/24 19:46:28;;;;;;;7.20;3.33;;;;;;;;;;13003634;19;20051;-63
2023/05/24 19:50:49;;;;;;;12.13;3.53;;;;;;;;;;13003441;19;20006;-62
2023/05/24 19:55:09;;;;;;;7.57;3.72;;;;;;;;;;13002455;19;20017;-62
2023/05/24 19:59:28;;;;;;;7.07;3.75;;;;;;;;;;13002674;19;20002;-62
2023/05/24 20:03:47;;;;;;;7.20;3.70;;;;;;;;;;13001678;19;20022;-62
2023/05/24 20:08:05;;;;;;;8.13;4.53;;;;;;;;;;13001969;19;20015;-63
2023/05/24 20:12:23;;;;;;;10.30;4.60;;;;;;;;;;13002123;19;20010;-62
2023/05/24 20:16:42;;;;;;;9.73;4.60;;;;;;;;;;12998915;19;20010;-62
2023/05/24 20:21:01;;;;;;;;;;;;;;;;;;13002373;19;20007;-62
2023/05/24 20:25:19;;;;;;;12.38;4.88;;;;;;;;;;13000244;19;19934;-62
2023/05/24 20:29:38;;;;;;;7.40;3.85;;;;;;;;;;13001351;19;20007;-62
2023/05/24 20:33:56;;;;;;;12.73;4.22;;;;;;;;;;13001385;19;20011;-62
2023/05/24 20:38:13;;;;;;;10.90;4.10;;;;;;;;;;12998893;19;20007;-62
2023/05/24 20:42:32;;;;;;;10.10;4.75;;;;;;;;;;12999348;19;20373;-62
2023/05/24 20:46:49;;;;;;;10.68;5.03;;;;;;;;;;13000354;19;20014;-62
2023/05/24 20:51:08;;;;;;;6.90;4.05;;;;;;;;;;13000796;19;20097;-62
2023/05/24 20:55:26;;;;;;;9.23;4.90;;;;;;;;;;13000141;19;20042;-63
2023/05/24 20:59:44;;;;;;;;;;;;;;;;;;13000071;19;20013;-63
2023/05/24 21:04:02;;;;;;;13.70;5.45;;;;;;;;;;12998203;19;20326;-62
2023/05/24 21:08:20;;;;;;;15.90;5.55;;;;;;;;;;12999085;19;20375;-62
2023/05/24 21:12:37;;;;;;;11.10;5.53;;;;;;;;;;12996785;19;20007;-62
2023/05/24 21:16:55;;;;;;;8.43;4.97;;;;;;;;;;12998687;19;20010;-62
2023/05/24 21:21:13;;;;;;;11.45;5.00;;;;;;;;;;12998676;19;20007;-62
2023/05/24 21:25:31;;;;;;;11.18;5.43;;;;;;;;;;12998007;19;20357;-62
2023/05/24 21:29:49;;;;;;;12.80;5.20;;;;;;;;;;13011450;19;20371;-62
2023/05/24 21:34:07;;;;;;;12.00;6.32;;;;;;;;;;13009933;19;19999;-62
2023/05/24 21:38:25;;;;;;;12.18;5.93;;;;;;;;;;13010392;19;20010;-62
2023/05/24 21:42:43;;;;;;;11.50;5.38;;;;;;;;;;13006751;19;20034;-62
2023/05/24 21:47:01;;;;;;;9.00;5.25;;;;;;;;;;13009838;19;20003;-62
2023/05/24 21:51:20;;;;;;;10.77;5.55;;;;;;;;;;13009747;19;20322;-62
2023/05/24 21:55:38;;;;;;;9.48;5.35;;;;;;;;;;13009298;19;20019;-62
2023/05/24 21:59:55;;;;;;;11.20;5.53;;;;;;;;;;13007801;19;20557;-62
2023/05/24 22:04:13;;;;;;;;;;;;;;;;;;13008251;19;20009;-61
2023/05/24 22:08:31;;;;;;;9.70;5.68;;;;;;;;;;13009371;19;19906;-62
2023/05/24 22:12:50;;;;;;;11.50;5.90;;;;;;;;;;13008840;19;20018;-62
2023/05/24 22:17:08;;;;;;;11.80;6.50;;;;;;;;;;13007711;19;20010;-62
2023/05/24 22:21:31;;;;;;;12.88;6.72;;;;;;;;;;13008651;19;20007;-61
2023/05/24 22:25:49;;;;;;;12.23;6.75;;;;;;;;;;13007788;19;20049;-62
2023/05/24 22:30:10;;;;;;;13.70;6.85;;;;;;;;;;13007263;19;20018;-61
2023/05/24 22:34:28;;;;;;;13.07;6.03;;;;;;;;;;13008109;19;20007;-61
2023/05/24 22:38:46;;;;;;;12.88;6.07;;;;;;;;;;13005093;19;20116;-62
2023/05/24 22:43:04;;;;;;;10.35;6.10;;;;;;;;;;13005224;19;20006;-62
2023/05/24 22:47:23;;;;;;;12.38;6.07;;;;;;;;;;13007504;19;20010;-62
2023/05/24 22:51:42;;;;;;;14.32;5.70;;;;;;;;;;13006544;19;20014;-62
2023/05/24 22:56:01;;;;;;;11.00;5.93;;;;;;;;;;13006293;19;20006;-62
2023/05/24 23:00:19;;;;;;;8.18;5.20;;;;;;;;;;13006019;19;20034;-62
2023/05/24 23:04:38;;;;;;;7.55;4.82;;;;;;;;;;13005636;19;20332;-62
2023/05/24 23:09:00;;;;;;;10.38;5.43;;;;;;;;;;13005708;19;20018;-61
2023/05/24 23:13:19;;;;;;;12.90;4.90;;;;;;;;;;13006326;19;20517;-61
2023/05/24 23:17:37;;;;;;;7.97;5.30;;;;;;;;;;13005166;19;19998;-62
2023/05/24 23:21:55;;;;;;;6.88;4.53;;;;;;;;;;13005407;19;20019;-62
2023/05/24 23:26:14;;;;;;;11.48;6.15;;;;;;;;;;13004106;19;20086;-62
2023/05/24 23:30:32;;;;;;;9.00;5.25;;;;;;;;;;13004490;19;20476;-62
2023/05/24 23:34:50;;;;;;;10.98;5.45;;;;;;;;;;13004401;19;20011;-61
2023/05/24 23:39:11;;;;;;;9.48;5.40;;;;;;;;;;13003460;19;20034;-61
2023/05/24 23:43:29;;;;;;;9.35;4.80;;;;;;;;;;13002871;19;20007;-61
2023/05/24 23:47:48;;;;;;;9.98;4.95;;;;;;;;;;13003799;19;20366;-61
2023/05/24 23:52:07;;;;;;;8.13;4.53;;;;;;;;;;13002433;19;20006;-62
2023/05/24 23:56:25;;;;;;;9.48;4.68;;;;;;;;;;13003347;19;20445;-61
